createdAt,value
2019-03-28T00:00:56.442Z,9.30
2019-03-28T00:03:25.001Z,9.10
2019-03-28T00:05:53.626Z,9.08
2019-03-28T00:08:21.992Z,8.90
2019-03-28T00:10:50.292Z,9.45
2019-03-28T00:13:20.006Z,8.68
2019-03-28T00:15:48.811Z,8.30
2019-03-28T00:18:17.668Z,8.88
2019-03-28T00:20:46.410Z,8.30
2019-03-28T00:23:37.050Z,8.38
2019-03-28T00:26:05.867Z,7.90
2019-03-28T00:28:36.982Z,8.00
2019-03-28T00:31:06.094Z,7.80
2019-03-28T00:33:35.193Z,7.40
2019-03-28T00:36:04.133Z,7.83
2019-03-28T00:38:32.386Z,7.80
2019-03-28T00:41:00.727Z,8.20
2019-03-28T00:43:28.963Z,7.40
2019-03-28T00:45:57.590Z,7.30
2019-03-28T00:48:25.821Z,7.60
2019-03-28T00:50:54.850Z,7.55
2019-03-28T00:53:31.323Z,8.40
2019-03-28T00:56:09.715Z,8.03
2019-03-28T00:58:38.483Z,7.97
2019-03-28T01:01:07.109Z,8.25
2019-03-28T01:03:36.340Z,8.20
2019-03-28T01:06:04.824Z,7.65
2019-03-28T01:08:56.590Z,8.00
2019-03-28T01:11:25.750Z,7.90
2019-03-28T01:13:54.401Z,7.78
2019-03-28T01:16:22.978Z,7.80
2019-03-28T01:18:51.218Z,7.90
2019-03-28T01:21:19.557Z,8.03
2019-03-28T01:23:48.244Z,7.63
2019-03-28T01:26:17.117Z,8.18
2019-03-28T01:28:46.061Z,8.30
2019-03-28T01:31:14.301Z,7.83
2019-03-28T01:33:43.231Z,8.30
2019-03-28T01:36:13.529Z,8.25
2019-03-28T01:38:41.749Z,7.90
2019-03-28T01:41:10.352Z,8.00
2019-03-28T01:43:39.526Z,8.30
2019-03-28T01:46:08.125Z,8.20
2019-03-28T01:48:36.730Z,8.50
2019-03-28T01:51:06.115Z,8.70
2019-03-28T01:53:34.489Z,9.15
2019-03-28T01:56:02.717Z,9.47
2019-03-28T01:58:31.276Z,9.80
2019-03-28T02:01:02.765Z,9.70
2019-03-28T02:03:29.797Z,10.20
2019-03-28T02:05:58.071Z,9.87
2019-03-28T02:08:26.769Z,10.00
2019-03-28T02:10:55.322Z,11.25
2019-03-28T02:13:23.897Z,11.03
2019-03-28T02:15:52.148Z,11.30
2019-03-28T02:18:20.401Z,10.93
2019-03-28T02:20:49.445Z,10.45
2019-03-28T02:23:18.143Z,11.65
2019-03-28T02:25:46.400Z,12.18
2019-03-28T02:28:15.115Z,12.40
2019-03-28T02:30:43.414Z,12.73
2019-03-28T02:33:11.664Z,13.08
2019-03-28T02:35:40.537Z,11.73
2019-03-28T02:38:08.821Z,11.53
2019-03-28T02:40:37.713Z,11.03
2019-03-28T02:43:06.629Z,12.10
2019-03-28T02:45:35.175Z,11.68
2019-03-28T02:48:03.407Z,11.30
2019-03-28T02:50:32.251Z,12.13
2019-03-28T02:53:00.840Z,12.57
2019-03-28T02:55:29.559Z,12.30
2019-03-28T02:57:57.909Z,12.30
2019-03-28T03:00:26.428Z,12.60
2019-03-28T03:02:54.995Z,12.30
2019-03-28T03:05:23.242Z,12.23
2019-03-28T03:07:51.511Z,12.60
2019-03-28T03:10:20.079Z,11.95
2019-03-28T03:12:49.413Z,12.70
2019-03-28T03:15:18.095Z,11.70
2019-03-28T03:17:46.342Z,12.00
2019-03-28T03:20:15.163Z,11.75
2019-03-28T03:22:43.751Z,12.73
2019-03-28T03:25:12.358Z,11.80
2019-03-28T03:27:56.402Z,11.00
2019-03-28T03:30:11.440Z,11.60
2019-03-28T03:32:40.074Z,11.50
2019-03-28T03:35:10.120Z,10.53
2019-03-28T03:37:38.393Z,11.05
2019-03-28T03:40:07.528Z,11.30
2019-03-28T03:42:36.110Z,11.40
2019-03-28T03:45:04.897Z,11.00
2019-03-28T03:47:33.461Z,10.68
2019-03-28T03:50:02.076Z,11.30
2019-03-28T03:52:30.647Z,11.20
2019-03-28T03:54:59.305Z,11.80
2019-03-28T03:57:27.824Z,12.23
2019-03-28T03:59:56.081Z,12.00
2019-03-28T04:02:24.346Z,12.10
2019-03-28T04:04:56.407Z,12.03
2019-03-28T04:07:22.564Z,11.90
2019-03-28T04:09:51.468Z,12.10
2019-03-28T04:12:20.070Z,12.33
2019-03-28T04:14:48.924Z,12.03
2019-03-28T04:17:17.516Z,11.48
2019-03-28T04:19:46.135Z,12.05
2019-03-28T04:22:14.419Z,11.93
2019-03-28T04:24:42.999Z,12.17
2019-03-28T04:27:11.434Z,12.15
2019-03-28T04:29:40.369Z,13.20
2019-03-28T04:32:08.641Z,12.43
2019-03-28T04:34:37.193Z,13.20
2019-03-28T04:37:06.567Z,13.83
2019-03-28T04:39:35.685Z,13.68
2019-03-28T04:42:03.951Z,14.35
2019-03-28T04:44:32.919Z,13.53
2019-03-28T04:47:01.221Z,13.70
2019-03-28T04:49:29.835Z,14.70
2019-03-28T04:51:58.401Z,14.65
2019-03-28T04:54:27.048Z,14.10
2019-03-28T04:56:55.358Z,15.55
2019-03-28T04:59:23.949Z,15.20
2019-03-28T05:02:02.576Z,15.53
2019-03-28T05:04:22.480Z,15.03
2019-03-28T05:06:51.035Z,15.32
2019-03-28T05:09:19.622Z,14.98
2019-03-28T05:11:47.899Z,14.18
2019-03-28T05:14:16.709Z,14.53
2019-03-28T05:16:44.945Z,15.60
2019-03-28T05:19:13.954Z,15.30
2019-03-28T05:21:42.258Z,14.30
2019-03-28T05:24:10.566Z,15.10
2019-03-28T05:26:39.505Z,14.60
2019-03-28T05:29:07.836Z,15.40
2019-03-28T05:31:36.089Z,14.87
2019-03-28T05:34:04.353Z,13.88
2019-03-28T05:36:32.978Z,13.60
2019-03-28T05:39:01.926Z,13.45
2019-03-28T05:41:30.261Z,14.40
2019-03-28T05:43:58.548Z,13.30
2019-03-28T05:46:26.917Z,14.25
2019-03-28T05:48:55.299Z,14.55
2019-03-28T05:51:23.542Z,13.90
2019-03-28T05:53:52.193Z,13.68
2019-03-28T05:56:20.777Z,13.53
2019-03-28T05:58:49.073Z,13.20
2019-03-28T06:01:17.740Z,13.55
2019-03-28T06:03:46.337Z,14.20
2019-03-28T06:06:14.593Z,14.20
2019-03-28T06:08:42.934Z,13.62
2019-03-28T06:11:11.293Z,13.40
2019-03-28T06:13:39.528Z,12.90
2019-03-28T06:16:08.728Z,13.83
2019-03-28T06:18:37.494Z,14.20
2019-03-28T06:21:05.751Z,14.20
2019-03-28T06:23:34.119Z,13.20
2019-03-28T06:26:02.968Z,13.20
2019-03-28T06:28:31.597Z,13.00
2019-03-28T06:31:00.147Z,14.20
2019-03-28T06:33:29.052Z,13.20
2019-03-28T06:35:57.286Z,13.08
2019-03-28T06:38:25.998Z,13.70
2019-03-28T06:40:55.041Z,13.37
2019-03-28T06:43:23.574Z,12.73
2019-03-28T06:45:52.292Z,13.00
2019-03-28T06:48:20.823Z,12.40
2019-03-28T06:50:49.442Z,12.28
2019-03-28T06:53:18.411Z,12.20
2019-03-28T06:55:47.098Z,11.95
2019-03-28T06:58:15.678Z,12.15
2019-03-28T07:00:44.275Z,13.20
2019-03-28T07:03:12.973Z,12.80
2019-03-28T07:05:41.948Z,12.35
2019-03-28T07:08:10.288Z,12.05
2019-03-28T07:10:39.219Z,12.68
2019-03-28T07:13:07.850Z,12.45
2019-03-28T07:15:37.131Z,12.63
2019-03-28T07:18:05.392Z,11.33
2019-03-28T07:20:33.673Z,12.70
2019-03-28T07:23:02.338Z,13.53
2019-03-28T07:25:30.950Z,15.65
2019-03-28T07:27:59.151Z,11.57
2019-03-28T07:30:27.726Z,12.65
2019-03-28T07:32:56.682Z,14.70
2019-03-28T07:35:25.272Z,11.20
2019-03-28T07:37:54.261Z,10.10
2019-03-28T07:40:23.050Z,10.82
2019-03-28T07:42:51.939Z,10.23
2019-03-28T07:45:20.646Z,10.10
2019-03-28T07:47:49.312Z,9.77
2019-03-28T07:50:17.619Z,9.30
2019-03-28T07:52:45.922Z,9.40
2019-03-28T07:55:16.415Z,9.60
2019-03-28T07:57:44.937Z,9.50
2019-03-28T08:00:13.423Z,9.50
2019-03-28T08:02:41.733Z,9.75
2019-03-28T08:05:10.641Z,9.55
2019-03-28T08:07:44.970Z,10.90
2019-03-28T08:10:09.330Z,9.30
2019-03-28T08:12:38.113Z,9.38
2019-03-28T08:15:06.799Z,11.30
2019-03-28T08:17:35.591Z,10.87
2019-03-28T08:20:05.054Z,9.88
2019-03-28T08:22:33.591Z,9.70
2019-03-28T08:25:02.360Z,10.10
2019-03-28T08:27:31.177Z,9.70
2019-03-28T08:29:59.750Z,9.60
2019-03-28T08:32:28.469Z,11.10
2019-03-28T08:34:56.753Z,10.53
2019-03-28T08:37:25.244Z,9.98
2019-03-28T08:39:53.804Z,8.75
2019-03-28T08:42:22.081Z,8.87
2019-03-28T08:44:50.433Z,9.90
2019-03-28T08:47:19.332Z,9.20
2019-03-28T08:49:47.843Z,7.70
2019-03-28T08:52:16.106Z,8.28
2019-03-28T08:54:44.621Z,8.40
2019-03-28T08:57:13.862Z,8.20
2019-03-28T08:59:42.231Z,8.45
2019-03-28T09:02:10.511Z,9.10
2019-03-28T09:04:39.126Z,9.03
2019-03-28T09:07:08.990Z,8.58
2019-03-28T09:09:37.572Z,8.17
2019-03-28T09:12:06.476Z,7.60
2019-03-28T09:14:35.074Z,7.50
2019-03-28T09:17:04.071Z,7.53
2019-03-28T09:19:32.717Z,11.57
2019-03-28T09:22:01.546Z,11.93
2019-03-28T09:24:30.159Z,10.70
2019-03-28T09:26:58.707Z,9.78
2019-03-28T09:29:27.608Z,7.87
2019-03-28T09:31:56.246Z,7.62
2019-03-28T09:34:25.402Z,7.47
2019-03-28T09:36:53.902Z,7.45
2019-03-28T09:39:24.854Z,6.80
2019-03-28T09:41:52.753Z,6.08
2019-03-28T09:44:21.315Z,6.37
2019-03-28T09:46:49.844Z,6.60
2019-03-28T09:49:18.120Z,7.70
2019-03-28T09:51:46.459Z,7.22
2019-03-28T09:54:15.860Z,6.62
2019-03-28T09:56:44.112Z,7.60
2019-03-28T09:59:12.356Z,6.70
2019-03-28T10:01:41.040Z,7.40
2019-03-28T10:04:09.630Z,8.20
2019-03-28T10:06:37.988Z,8.30
2019-03-28T10:09:07.726Z,8.08
2019-03-28T10:11:36.303Z,8.98
2019-03-28T10:14:04.993Z,9.40
2019-03-28T10:16:33.262Z,8.60
2019-03-28T10:19:01.617Z,9.20
2019-03-28T10:21:30.060Z,9.18
2019-03-28T10:23:58.344Z,8.73
2019-03-28T10:26:26.889Z,8.80
2019-03-28T10:28:55.887Z,9.30
2019-03-28T10:31:25.442Z,9.40
2019-03-28T10:33:54.078Z,8.65
2019-03-28T10:36:22.346Z,10.43
2019-03-28T10:38:51.030Z,9.35
2019-03-28T10:41:19.620Z,8.78
2019-03-28T10:43:48.409Z,9.20
2019-03-28T10:46:16.760Z,9.45
2019-03-28T10:48:45.777Z,9.35
2019-03-28T10:51:14.084Z,10.10
2019-03-28T10:53:42.951Z,10.25
2019-03-28T10:56:21.427Z,9.40
2019-03-28T10:58:41.933Z,9.88
2019-03-28T11:01:11.126Z,8.60
2019-03-28T11:03:39.485Z,8.40
2019-03-28T11:06:07.792Z,8.88
2019-03-28T11:08:36.705Z,8.50
2019-03-28T11:11:05.073Z,8.23
2019-03-28T11:13:33.666Z,8.80
2019-03-28T11:16:01.929Z,8.53
2019-03-28T11:18:30.467Z,8.58
2019-03-28T11:20:58.730Z,7.87
2019-03-28T11:23:27.593Z,7.40
2019-03-28T11:25:57.449Z,7.00
2019-03-28T11:28:26.388Z,6.72
2019-03-28T11:30:55.057Z,6.35
2019-03-28T11:33:23.305Z,5.63
2019-03-28T11:35:51.559Z,5.83
2019-03-28T11:38:20.134Z,5.60
2019-03-28T11:40:49.597Z,5.30
2019-03-28T11:43:17.831Z,4.97
2019-03-28T11:45:46.246Z,5.10
2019-03-28T11:48:14.638Z,5.35
2019-03-28T11:50:42.919Z,4.90
2019-03-28T11:53:11.167Z,4.73
2019-03-28T11:55:39.795Z,5.30
2019-03-28T11:58:08.968Z,5.00
2019-03-28T12:00:37.235Z,4.75
2019-03-28T12:03:05.590Z,5.50
2019-03-28T12:05:33.954Z,5.33
2019-03-28T12:08:02.549Z,5.55
2019-03-28T12:10:30.855Z,5.90
2019-03-28T12:12:59.149Z,5.40
2019-03-28T12:15:27.362Z,5.45
2019-03-28T12:17:56.040Z,5.78
2019-03-28T12:20:25.029Z,5.67
2019-03-28T12:22:56.103Z,6.05
2019-03-28T12:25:24.131Z,5.40
2019-03-28T12:27:52.945Z,5.87
2019-03-28T12:30:21.921Z,6.20
2019-03-28T12:32:50.157Z,5.60
2019-03-28T12:35:18.405Z,5.70
2019-03-28T12:37:46.906Z,6.40
2019-03-28T12:40:15.237Z,5.97
2019-03-28T12:42:43.783Z,5.67
2019-03-28T12:45:12.536Z,6.00
2019-03-28T12:47:42.872Z,6.17
2019-03-28T12:50:12.488Z,6.20
2019-03-28T12:52:40.743Z,6.30
2019-03-28T12:55:09.085Z,6.40
2019-03-28T12:57:37.867Z,6.10
2019-03-28T13:00:07.231Z,6.42
2019-03-28T13:02:35.751Z,6.30
2019-03-28T13:05:04.255Z,6.30
2019-03-28T13:07:32.529Z,5.83
2019-03-28T13:10:01.915Z,6.40
2019-03-28T13:12:30.913Z,6.92
2019-03-28T13:14:59.162Z,6.70
2019-03-28T13:17:27.457Z,6.33
2019-03-28T13:19:56.045Z,6.33
2019-03-28T13:22:24.712Z,6.65
2019-03-28T13:24:53.613Z,6.67
2019-03-28T13:27:21.849Z,6.42
2019-03-28T13:29:50.090Z,6.55
2019-03-28T13:32:18.664Z,6.60
2019-03-28T13:34:47.507Z,6.75
2019-03-28T13:37:16.137Z,7.40
2019-03-28T13:39:45.033Z,6.83
2019-03-28T13:42:13.257Z,6.80
2019-03-28T13:44:41.757Z,7.10
2019-03-28T13:47:10.279Z,7.10
2019-03-28T13:49:39.010Z,7.60
2019-03-28T13:52:07.254Z,6.80
2019-03-28T13:54:35.525Z,7.47
2019-03-28T13:57:03.848Z,7.30
2019-03-28T13:59:35.249Z,6.87
2019-03-28T14:02:02.256Z,8.00
2019-03-28T14:04:30.709Z,7.87
2019-03-28T14:06:59.264Z,8.18
2019-03-28T14:09:28.155Z,8.00
2019-03-28T14:11:56.404Z,7.78
2019-03-28T14:14:24.682Z,7.28
2019-03-28T14:16:53.651Z,7.20
2019-03-28T14:19:22.633Z,6.37
2019-03-28T14:21:51.430Z,7.20
2019-03-28T14:24:20.026Z,6.80
2019-03-28T14:26:48.269Z,6.83
2019-03-28T14:29:16.621Z,6.40
2019-03-28T14:31:45.000Z,7.08
2019-03-28T14:34:13.265Z,6.75
2019-03-28T14:36:41.496Z,6.62
2019-03-28T14:39:09.776Z,5.72
2019-03-28T14:41:38.558Z,6.30
2019-03-28T14:44:07.041Z,6.17
2019-03-28T14:46:35.524Z,6.10
2019-03-28T14:49:04.409Z,8.40
2019-03-28T14:51:32.998Z,7.00
2019-03-28T14:54:01.217Z,6.00
2019-03-28T14:56:29.700Z,5.78
2019-03-28T14:58:58.614Z,5.55
2019-03-28T15:01:27.292Z,9.60
2019-03-28T15:03:55.982Z,7.63
2019-03-28T15:06:24.692Z,7.55
2019-03-28T15:08:53.068Z,6.95
2019-03-28T15:11:21.297Z,6.40
2019-03-28T15:13:49.555Z,6.80
2019-03-28T15:16:17.806Z,6.80
2019-03-28T15:18:46.370Z,7.70
2019-03-28T15:21:14.621Z,7.40
2019-03-28T15:23:43.093Z,7.47
2019-03-28T15:26:11.692Z,7.37
2019-03-28T15:28:40.249Z,6.60
2019-03-28T15:31:09.033Z,7.30
2019-03-28T15:33:39.697Z,7.35
2019-03-28T15:36:07.674Z,7.17
2019-03-28T15:38:36.313Z,8.90
2019-03-28T15:41:04.942Z,8.30
2019-03-28T15:43:33.193Z,7.12
2019-03-28T15:46:01.696Z,7.60
2019-03-28T15:48:29.988Z,7.13
2019-03-28T15:50:58.781Z,6.95
2019-03-28T15:53:27.352Z,7.30
2019-03-28T15:55:56.326Z,7.60
2019-03-28T15:58:25.133Z,7.12
2019-03-28T16:00:53.627Z,6.72
2019-03-28T16:03:22.201Z,7.60
2019-03-28T16:05:58.121Z,7.50
2019-03-28T16:08:21.269Z,6.60
2019-03-28T16:10:49.505Z,6.72
2019-03-28T16:13:18.010Z,7.37
2019-03-28T16:15:46.255Z,6.90
2019-03-28T16:18:14.494Z,8.98
2019-03-28T16:20:43.203Z,7.10
2019-03-28T16:23:11.770Z,7.60
2019-03-28T16:25:40.476Z,7.90
2019-03-28T16:28:08.743Z,7.20
2019-03-28T16:30:38.057Z,12.57
2019-03-28T16:33:06.665Z,14.10
2019-03-28T16:35:34.913Z,12.07
2019-03-28T16:38:03.649Z,7.67
2019-03-28T16:40:32.184Z,7.90
2019-03-28T16:43:00.781Z,7.50
2019-03-28T16:45:29.057Z,8.40
2019-03-28T16:47:59.156Z,8.53
2019-03-28T16:50:28.068Z,8.98
2019-03-28T16:52:56.658Z,8.25
2019-03-28T16:55:26.576Z,8.50
2019-03-28T16:57:55.053Z,8.80
2019-03-28T17:00:24.953Z,9.20
2019-03-28T17:02:53.181Z,8.50
2019-03-28T17:05:22.046Z,8.73
2019-03-28T17:07:51.639Z,8.88
2019-03-28T17:10:34.861Z,9.50
2019-03-28T17:13:03.070Z,35.45
2019-03-28T17:15:31.621Z,29.98
2019-03-28T17:18:00.443Z,14.23
2019-03-28T17:20:28.702Z,12.18
2019-03-28T17:22:56.970Z,10.70
2019-03-28T17:25:25.485Z,16.40
2019-03-28T17:27:53.750Z,11.80
2019-03-28T17:30:22.383Z,11.55
2019-03-28T17:32:51.064Z,12.40
2019-03-28T17:35:19.987Z,11.43
2019-03-28T17:37:48.314Z,11.48
2019-03-28T17:40:17.229Z,12.93
2019-03-28T17:42:47.833Z,19.83
2019-03-28T17:45:16.374Z,17.30
2019-03-28T17:47:44.612Z,13.43
2019-03-28T17:50:13.141Z,11.73
2019-03-28T17:52:41.982Z,12.82
2019-03-28T17:55:10.276Z,11.60
2019-03-28T17:57:39.596Z,11.80
2019-03-28T18:00:09.110Z,12.07
2019-03-28T18:02:37.621Z,11.80
2019-03-28T18:05:09.759Z,10.60
2019-03-28T18:07:36.102Z,11.30
2019-03-28T18:10:04.595Z,10.70
2019-03-28T18:12:33.258Z,10.43
2019-03-28T18:15:01.597Z,9.93
2019-03-28T18:17:30.527Z,9.90
2019-03-28T18:19:59.104Z,9.55
2019-03-28T18:22:27.996Z,9.97
2019-03-28T18:24:56.227Z,32.13
2019-03-28T18:27:39.293Z,14.50
2019-03-28T18:30:08.513Z,10.20
2019-03-28T18:32:39.446Z,9.60
2019-03-28T18:35:08.160Z,8.98
2019-03-28T18:37:37.099Z,9.13
2019-03-28T18:40:05.729Z,8.53
2019-03-28T18:42:34.001Z,8.50
2019-03-28T18:45:02.502Z,8.70
2019-03-28T18:47:30.728Z,8.45
2019-03-28T18:49:58.938Z,8.00
2019-03-28T18:52:27.500Z,7.72
2019-03-28T18:54:56.124Z,7.15
2019-03-28T18:57:24.662Z,12.63
2019-03-28T18:59:53.503Z,9.88
2019-03-28T19:02:22.037Z,7.75
2019-03-28T19:04:50.616Z,8.70
2019-03-28T19:07:19.509Z,7.60
2019-03-28T19:09:47.744Z,13.98
2019-03-28T19:12:16.184Z,15.90
2019-03-28T19:14:46.199Z,8.95
2019-03-28T19:17:14.411Z,9.05
2019-03-28T19:19:43.741Z,11.45
2019-03-28T19:22:12.113Z,7.23
2019-03-28T19:24:40.620Z,6.60
2019-03-28T19:27:09.126Z,6.22
2019-03-28T19:29:37.701Z,6.15
2019-03-28T19:32:06.377Z,6.00
2019-03-28T19:34:34.920Z,6.90
2019-03-28T19:37:03.277Z,30.23
2019-03-28T19:39:32.048Z,13.43
2019-03-28T19:42:00.332Z,6.75
2019-03-28T19:44:29.605Z,6.45
2019-03-28T19:46:57.885Z,7.20
2019-03-28T19:49:26.726Z,7.20
2019-03-28T19:51:55.102Z,6.80
2019-03-28T19:54:23.336Z,6.87
2019-03-28T19:56:52.249Z,6.80
2019-03-28T19:59:20.602Z,6.40
2019-03-28T20:01:48.865Z,6.63
2019-03-28T20:04:17.325Z,6.85
2019-03-28T20:06:45.903Z,6.95
2019-03-28T20:09:16.535Z,7.30
2019-03-28T20:11:44.340Z,7.30
2019-03-28T20:14:12.816Z,7.83
2019-03-28T20:16:41.078Z,8.10
2019-03-28T20:19:09.881Z,8.00
2019-03-28T20:21:38.540Z,9.70
2019-03-28T20:24:07.041Z,9.50
2019-03-28T20:26:35.276Z,9.40
2019-03-28T20:29:03.488Z,10.00
2019-03-28T20:31:32.232Z,10.70
2019-03-28T20:34:01.017Z,10.78
2019-03-28T20:36:37.695Z,11.68
2019-03-28T20:39:04.205Z,11.00
2019-03-28T20:41:29.478Z,12.30
2019-03-28T20:43:58.589Z,13.00
2019-03-28T20:46:26.813Z,11.83
2019-03-28T20:48:55.059Z,12.37
2019-03-28T20:51:24.717Z,12.80
2019-03-28T20:53:53.648Z,13.27
2019-03-28T20:56:22.186Z,13.90
2019-03-28T20:58:50.449Z,14.27
2019-03-28T21:01:19.185Z,19.50
2019-03-28T21:03:49.559Z,15.63
2019-03-28T21:06:19.547Z,14.10
2019-03-28T21:08:48.221Z,16.40
2019-03-28T21:11:16.467Z,15.43
2019-03-28T21:13:44.974Z,15.48
2019-03-28T21:16:13.440Z,15.20
2019-03-28T21:18:41.968Z,14.35
2019-03-28T21:21:10.506Z,15.23
2019-03-28T21:23:38.866Z,14.75
2019-03-28T21:26:07.349Z,15.93
2019-03-28T21:28:46.377Z,16.17
2019-03-28T21:31:05.565Z,16.25
2019-03-28T21:33:34.166Z,15.80
2019-03-28T21:36:02.380Z,16.80
2019-03-28T21:38:30.642Z,15.83
2019-03-28T21:40:59.696Z,16.20
2019-03-28T21:43:29.273Z,15.80
2019-03-28T21:45:57.547Z,16.67
2019-03-28T21:48:25.776Z,17.50
2019-03-28T21:50:54.438Z,16.82
2019-03-28T21:53:23.038Z,17.77
2019-03-28T21:55:55.403Z,16.70
2019-03-28T21:58:21.853Z,17.15
2019-03-28T22:00:50.086Z,18.10
2019-03-28T22:03:19.456Z,17.00
2019-03-28T22:05:47.913Z,16.87
2019-03-28T22:08:16.481Z,16.80
2019-03-28T22:10:44.986Z,15.83
2019-03-28T22:13:13.428Z,15.00
2019-03-28T22:15:41.685Z,15.80
2019-03-28T22:18:10.338Z,16.50
2019-03-28T22:20:38.585Z,16.75
2019-03-28T22:23:07.590Z,17.02
2019-03-28T22:25:36.193Z,16.00
2019-03-28T22:28:04.809Z,15.57
2019-03-28T22:30:33.346Z,15.85
2019-03-28T22:33:02.188Z,15.43
2019-03-28T22:35:30.825Z,15.30
2019-03-28T22:37:59.117Z,15.63
2019-03-28T22:40:27.383Z,15.23
2019-03-28T22:42:55.680Z,14.75
2019-03-28T22:45:23.964Z,15.32
2019-03-28T22:47:52.461Z,14.73
2019-03-28T22:50:20.969Z,14.83
2019-03-28T22:52:49.981Z,14.73
2019-03-28T22:55:18.199Z,13.83
2019-03-28T22:57:46.854Z,14.70
2019-03-28T23:00:15.436Z,14.07
2019-03-28T23:02:43.722Z,13.70
2019-03-28T23:05:12.072Z,14.18
2019-03-28T23:07:40.977Z,14.20
2019-03-28T23:10:11.301Z,13.80
2019-03-28T23:12:40.365Z,14.63
2019-03-28T23:15:10.971Z,14.33
2019-03-28T23:17:39.827Z,14.50
2019-03-28T23:20:09.565Z,14.03
2019-03-28T23:22:39.270Z,13.87
2019-03-28T23:25:07.520Z,13.13
2019-03-28T23:27:36.087Z,13.90
2019-03-28T23:30:05.198Z,13.72
2019-03-28T23:32:33.973Z,13.50
2019-03-28T23:35:02.654Z,13.22
2019-03-28T23:37:31.213Z,12.73
2019-03-28T23:39:59.589Z,13.40
2019-03-28T23:42:28.849Z,12.60
2019-03-28T23:44:57.186Z,12.58
2019-03-28T23:47:25.456Z,12.63
2019-03-28T23:49:53.712Z,12.93
2019-03-28T23:52:22.565Z,12.57
2019-03-28T23:54:51.317Z,12.60
2019-03-28T23:57:21.276Z,11.80
2019-03-28T23:59:50.120Z,11.93
